sensor_id;sensor_type;location;lat;lon;timestamp;pressure;altitude;pressure_sealevel;temperature;humidity
6433;BME280;3249;42.690;23.260;2023-08-31T00:01:36;93784.69;;;17.63;100.00
6433;BME280;3249;42.690;23.260;2023-08-31T00:04:05;93791.66;;;17.72;100.00
6433;BME280;3249;42.690;23.260;2023-08-31T00:06:40;93787.81;;;17.65;100.00
6433;BME280;3249;42.690;23.260;2023-08-31T00:09:13;93799.22;;;17.69;100.00
6433;BME280;3249;42.690;23.260;2023-08-31T00:11:42;93794.88;;;17.59;100.00
6433;BME280;3249;42.690;23.260;2023-08-31T00:14:12;93795.19;;;17.48;100.00
6433;BME280;3249;42.690;23.260;2023-08-31T00:16:41;93791.28;;;17.45;100.00
6433;BME280;3249;42.690;23.260;2023-08-31T00:19:11;93780.41;;;17.43;100.00
6433;BME280;3249;42.690;23.260;2023-08-31T00:21:40;93799.94;;;17.79;100.00
6433;BME280;3249;42.690;23.260;2023-08-31T00:24:09;93794.53;;;17.71;100.00
6433;BME280;3249;42.690;23.260;2023-08-31T00:26:41;93796.47;;;17.55;100.00
6433;BME280;3249;42.690;23.260;2023-08-31T00:29:11;93795.94;;;17.53;100.00
6433;BME280;3249;42.690;23.260;2023-08-31T00:31:42;93807.22;;;17.82;100.00
6433;BME280;3249;42.690;23.260;2023-08-31T00:34:11;93806.53;;;18.00;100.00
6433;BME280;3249;42.690;23.260;2023-08-31T00:36:40;93809.78;;;17.87;100.00
6433;BME280;3249;42.690;23.260;2023-08-31T00:39:09;93804.94;;;17.71;100.00
6433;BME280;3249;42.690;23.260;2023-08-31T00:41:41;93814.41;;;17.57;100.00
6433;BME280;3249;42.690;23.260;2023-08-31T00:44:11;93812.09;;;17.50;100.00
6433;BME280;3249;42.690;23.260;2023-08-31T00:46:41;93819.41;;;17.48;100.00
6433;BME280;3249;42.690;23.260;2023-08-31T00:49:11;93814.72;;;17.50;100.00
6433;BME280;3249;42.690;23.260;2023-08-31T00:51:41;93810.97;;;17.66;100.00
6433;BME280;3249;42.690;23.260;2023-08-31T00:54:15;93811.06;;;17.90;100.00
6433;BME280;3249;42.690;23.260;2023-08-31T00:56:52;93817.22;;;18.04;100.00
6433;BME280;3249;42.690;23.260;2023-08-31T00:59:23;93820.78;;;18.13;100.00
6433;BME280;3249;42.690;23.260;2023-08-31T01:02:00;93815.94;;;18.30;100.00
6433;BME280;3249;42.690;23.260;2023-08-31T01:04:37;93823.66;;;18.45;100.00
6433;BME280;3249;42.690;23.260;2023-08-31T01:07:16;93835.25;;;18.58;100.00
6433;BME280;3249;42.690;23.260;2023-08-31T01:09:53;93806.84;;;18.28;100.00
6433;BME280;3249;42.690;23.260;2023-08-31T01:12:34;93822.19;;;18.34;100.00
6433;BME280;3249;42.690;23.260;2023-08-31T01:15:11;93827.34;;;18.39;100.00
6433;BME280;3249;42.690;23.260;2023-08-31T01:17:45;93832.44;;;18.21;100.00
6433;BME280;3249;42.690;23.260;2023-08-31T01:20:19;93825.03;;;18.04;100.00
6433;BME280;3249;42.690;23.260;2023-08-31T01:22:57;93839.78;;;18.13;100.00
6433;BME280;3249;42.690;23.260;2023-08-31T01:25:32;93828.47;;;18.28;100.00
6433;BME280;3249;42.690;23.260;2023-08-31T01:28:02;93842.22;;;18.34;100.00
6433;BME280;3249;42.690;23.260;2023-08-31T01:30:32;93828.63;;;18.42;100.00
6433;BME280;3249;42.690;23.260;2023-08-31T01:33:01;93816.16;;;18.39;100.00
6433;BME280;3249;42.690;23.260;2023-08-31T01:35:33;93819.03;;;18.37;100.00
6433;BME280;3249;42.690;23.260;2023-08-31T01:38:05;93818.81;;;18.29;100.00
6433;BME280;3249;42.690;23.260;2023-08-31T01:40:43;93824.03;;;18.29;100.00
6433;BME280;3249;42.690;23.260;2023-08-31T01:43:14;93826.31;;;18.01;100.00
6433;BME280;3249;42.690;23.260;2023-08-31T01:45:46;93819.13;;;17.88;100.00
6433;BME280;3249;42.690;23.260;2023-08-31T01:48:15;93809.97;;;17.96;100.00
6433;BME280;3249;42.690;23.260;2023-08-31T01:50:44;93820.53;;;18.09;100.00
6433;BME280;3249;42.690;23.260;2023-08-31T01:53:14;93815.84;;;18.12;100.00
6433;BME280;3249;42.690;23.260;2023-08-31T01:55:45;93815.88;;;17.68;100.00
6433;BME280;3249;42.690;23.260;2023-08-31T01:58:14;93818.53;;;17.63;100.00
6433;BME280;3249;42.690;23.260;2023-08-31T02:00:43;93825.44;;;17.82;100.00
6433;BME280;3249;42.690;23.260;2023-08-31T02:03:13;93828.00;;;17.87;100.00
6433;BME280;3249;42.690;23.260;2023-08-31T02:05:43;93832.84;;;17.99;100.00
6433;BME280;3249;42.690;23.260;2023-08-31T02:08:12;93833.13;;;17.97;100.00
6433;BME280;3249;42.690;23.260;2023-08-31T02:10:46;93836.44;;;17.69;100.00
6433;BME280;3249;42.690;23.260;2023-08-31T02:13:22;93837.66;;;17.38;100.00
6433;BME280;3249;42.690;23.260;2023-08-31T02:15:52;93837.72;;;17.23;100.00
6433;BME280;3249;42.690;23.260;2023-08-31T02:18:21;93834.16;;;16.94;100.00
6433;BME280;3249;42.690;23.260;2023-08-31T02:20:51;93831.66;;;16.64;100.00
6433;BME280;3249;42.690;23.260;2023-08-31T02:23:20;93836.09;;;16.49;100.00
6433;BME280;3249;42.690;23.260;2023-08-31T02:25:52;93833.00;;;16.47;100.00
6433;BME280;3249;42.690;23.260;2023-08-31T02:28:21;93831.41;;;16.56;100.00
6433;BME280;3249;42.690;23.260;2023-08-31T02:30:58;93833.72;;;16.72;100.00
6433;BME280;3249;42.690;23.260;2023-08-31T02:33:30;93823.91;;;16.59;100.00
6433;BME280;3249;42.690;23.260;2023-08-31T02:35:59;93828.06;;;16.45;100.00
6433;BME280;3249;42.690;23.260;2023-08-31T02:38:28;93827.81;;;16.42;100.00
6433;BME280;3249;42.690;23.260;2023-08-31T02:41:01;93829.06;;;16.34;100.00
6433;BME280;3249;42.690;23.260;2023-08-31T02:43:29;93831.44;;;16.31;100.00
6433;BME280;3249;42.690;23.260;2023-08-31T02:45:59;93829.63;;;16.51;100.00
6433;BME280;3249;42.690;23.260;2023-08-31T02:48:28;93824.63;;;16.65;100.00
6433;BME280;3249;42.690;23.260;2023-08-31T02:50:58;93835.28;;;16.73;100.00
6433;BME280;3249;42.690;23.260;2023-08-31T02:53:29;93836.88;;;16.49;100.00
6433;BME280;3249;42.690;23.260;2023-08-31T02:56:01;93818.69;;;16.54;100.00
6433;BME280;3249;42.690;23.260;2023-08-31T02:58:31;93855.28;;;16.78;100.00
6433;BME280;3249;42.690;23.260;2023-08-31T03:01:08;93851.41;;;16.75;100.00
6433;BME280;3249;42.690;23.260;2023-08-31T03:03:41;93853.50;;;16.63;100.00
6433;BME280;3249;42.690;23.260;2023-08-31T03:06:11;93847.78;;;16.26;100.00
6433;BME280;3249;42.690;23.260;2023-08-31T03:08:41;93853.50;;;16.13;100.00
6433;BME280;3249;42.690;23.260;2023-08-31T03:11:12;93850.63;;;15.75;100.00
6433;BME280;3249;42.690;23.260;2023-08-31T03:13:42;93855.00;;;15.54;100.00
6433;BME280;3249;42.690;23.260;2023-08-31T03:16:12;93851.88;;;15.42;100.00
6433;BME280;3249;42.690;23.260;2023-08-31T03:18:41;93852.16;;;15.51;100.00
6433;BME280;3249;42.690;23.260;2023-08-31T03:21:11;93855.53;;;15.61;100.00
6433;BME280;3249;42.690;23.260;2023-08-31T03:23:39;93855.00;;;15.59;100.00
6433;BME280;3249;42.690;23.260;2023-08-31T03:26:11;93817.06;;;15.28;100.00
6433;BME280;3249;42.690;23.260;2023-08-31T03:28:40;93844.91;;;15.68;100.00
6433;BME280;3249;42.690;23.260;2023-08-31T03:31:09;93860.50;;;15.78;100.00
6433;BME280;3249;42.690;23.260;2023-08-31T03:33:38;93858.13;;;15.66;100.00
6433;BME280;3249;42.690;23.260;2023-08-31T03:36:07;93840.47;;;15.63;100.00
6433;BME280;3249;42.690;23.260;2023-08-31T03:38:36;93856.88;;;15.89;100.00
6433;BME280;3249;42.690;23.260;2023-08-31T03:41:06;93864.41;;;15.95;100.00
6433;BME280;3249;42.690;23.260;2023-08-31T03:43:37;93862.34;;;16.02;100.00
6433;BME280;3249;42.690;23.260;2023-08-31T03:46:07;93866.22;;;16.20;100.00
6433;BME280;3249;42.690;23.260;2023-08-31T03:48:36;93878.97;;;16.01;100.00
6433;BME280;3249;42.690;23.260;2023-08-31T03:51:05;93877.66;;;15.94;100.00
6433;BME280;3249;42.690;23.260;2023-08-31T03:53:34;93878.97;;;16.06;100.00
6433;BME280;3249;42.690;23.260;2023-08-31T03:56:03;93884.44;;;16.30;100.00
6433;BME280;3249;42.690;23.260;2023-08-31T03:58:32;93883.09;;;16.02;100.00
6433;BME280;3249;42.690;23.260;2023-08-31T04:01:04;93883.38;;;16.06;100.00
6433;BME280;3249;42.690;23.260;2023-08-31T04:03:33;93892.97;;;16.30;100.00
6433;BME280;3249;42.690;23.260;2023-08-31T04:06:03;93897.16;;;16.46;100.00
6433;BME280;3249;42.690;23.260;2023-08-31T04:08:32;93912.75;;;16.61;100.00
6433;BME280;3249;42.690;23.260;2023-08-31T04:11:03;93922.09;;;16.72;100.00
6433;BME280;3249;42.690;23.260;2023-08-31T04:13:32;93923.41;;;16.65;100.00
6433;BME280;3249;42.690;23.260;2023-08-31T04:16:04;93924.69;;;16.62;100.00
6433;BME280;3249;42.690;23.260;2023-08-31T04:18:34;93927.84;;;16.44;100.00
6433;BME280;3249;42.690;23.260;2023-08-31T04:21:03;93920.81;;;16.45;100.00
6433;BME280;3249;42.690;23.260;2023-08-31T04:23:32;93924.19;;;16.40;100.00
6433;BME280;3249;42.690;23.260;2023-08-31T04:26:09;93935.34;;;16.36;100.00
6433;BME280;3249;42.690;23.260;2023-08-31T04:28:39;93946.75;;;16.40;100.00
6433;BME280;3249;42.690;23.260;2023-08-31T04:31:11;93937.69;;;16.77;100.00
6433;BME280;3249;42.690;23.260;2023-08-31T04:33:40;93939.25;;;16.78;100.00
6433;BME280;3249;42.690;23.260;2023-08-31T04:36:09;93941.56;;;17.00;100.00
6433;BME280;3249;42.690;23.260;2023-08-31T04:38:38;93939.16;;;17.18;100.00
6433;BME280;3249;42.690;23.260;2023-08-31T04:41:07;93945.63;;;17.46;100.00
6433;BME280;3249;42.690;23.260;2023-08-31T04:43:36;93941.22;;;17.41;100.00
6433;BME280;3249;42.690;23.260;2023-08-31T04:46:05;93955.00;;;17.42;100.00
6433;BME280;3249;42.690;23.260;2023-08-31T04:48:38;93964.91;;;17.45;100.00
6433;BME280;3249;42.690;23.260;2023-08-31T04:51:09;93965.69;;;17.40;100.00
6433;BME280;3249;42.690;23.260;2023-08-31T04:53:55;93956.75;;;17.66;100.00
6433;BME280;3249;42.690;23.260;2023-08-31T04:56:24;93960.47;;;17.99;100.00
6433;BME280;3249;42.690;23.260;2023-08-31T04:58:52;93952.81;;;18.17;100.00
6433;BME280;3249;42.690;23.260;2023-08-31T05:01:22;93958.94;;;18.42;100.00
6433;BME280;3249;42.690;23.260;2023-08-31T05:03:54;93957.56;;;18.05;100.00
6433;BME280;3249;42.690;23.260;2023-08-31T05:06:23;93966.47;;;17.99;100.00
6433;BME280;3249;42.690;23.260;2023-08-31T05:08:52;93971.22;;;18.31;100.00
6433;BME280;3249;42.690;23.260;2023-08-31T05:11:22;93969.50;;;18.60;100.00
6433;BME280;3249;42.690;23.260;2023-08-31T05:13:51;93977.41;;;18.84;100.00
6433;BME280;3249;42.690;23.260;2023-08-31T05:16:21;93966.84;;;18.99;100.00
6433;BME280;3249;42.690;23.260;2023-08-31T05:18:49;93978.59;;;19.25;100.00
6433;BME280;3249;42.690;23.260;2023-08-31T05:21:21;93982.63;;;19.41;100.00
6433;BME280;3249;42.690;23.260;2023-08-31T05:23:50;93982.53;;;19.51;100.00
6433;BME280;3249;42.690;23.260;2023-08-31T05:26:19;93985.81;;;19.61;100.00
6433;BME280;3249;42.690;23.260;2023-08-31T05:28:48;93987.53;;;19.71;100.00
6433;BME280;3249;42.690;23.260;2023-08-31T05:31:17;93990.97;;;19.90;100.00
6433;BME280;3249;42.690;23.260;2023-08-31T05:33:46;93987.72;;;19.98;100.00
6433;BME280;3249;42.690;23.260;2023-08-31T05:36:15;93980.28;;;20.10;100.00
6433;BME280;3249;42.690;23.260;2023-08-31T05:38:46;93977.97;;;20.27;94.05
6433;BME280;3249;42.690;23.260;2023-08-31T05:41:16;93978.94;;;20.12;91.67
6433;BME280;3249;42.690;23.260;2023-08-31T05:43:45;93979.34;;;20.01;93.26
6433;BME280;3249;42.690;23.260;2023-08-31T05:46:14;93979.06;;;19.79;96.12
6433;BME280;3249;42.690;23.260;2023-08-31T05:48:43;93982.63;;;20.06;96.97
6433;BME280;3249;42.690;23.260;2023-08-31T05:51:12;93977.69;;;20.28;89.03
6433;BME280;3249;42.690;23.260;2023-08-31T05:53:41;93973.50;;;20.46;90.89
6433;BME280;3249;42.690;23.260;2023-08-31T05:56:13;93973.41;;;19.95;90.67
6433;BME280;3249;42.690;23.260;2023-08-31T05:58:42;93977.94;;;19.85;91.50
6433;BME280;3249;42.690;23.260;2023-08-31T06:01:11;93984.19;;;19.89;92.86
6433;BME280;3249;42.690;23.260;2023-08-31T06:03:39;93989.84;;;19.96;93.54
6433;BME280;3249;42.690;23.260;2023-08-31T06:06:09;93987.88;;;20.06;92.49
6433;BME280;3249;42.690;23.260;2023-08-31T06:08:38;93998.31;;;20.11;91.54
6433;BME280;3249;42.690;23.260;2023-08-31T06:11:08;94001.28;;;20.23;91.83
6433;BME280;3249;42.690;23.260;2023-08-31T06:13:41;93997.25;;;20.31;90.71
6433;BME280;3249;42.690;23.260;2023-08-31T06:16:11;94000.13;;;20.48;89.24
6433;BME280;3249;42.690;23.260;2023-08-31T06:18:40;93999.09;;;20.49;89.75
6433;BME280;3249;42.690;23.260;2023-08-31T06:21:09;94009.47;;;20.54;91.13
6433;BME280;3249;42.690;23.260;2023-08-31T06:23:38;94012.88;;;20.54;90.81
6433;BME280;3249;42.690;23.260;2023-08-31T06:26:07;94013.66;;;20.55;92.38
6433;BME280;3249;42.690;23.260;2023-08-31T06:28:36;94008.34;;;20.78;92.00
6433;BME280;3249;42.690;23.260;2023-08-31T06:31:08;94015.25;;;21.06;84.10
6433;BME280;3249;42.690;23.260;2023-08-31T06:33:37;94027.34;;;21.02;82.36
6433;BME280;3249;42.690;23.260;2023-08-31T06:36:06;94031.66;;;21.25;80.73
6433;BME280;3249;42.690;23.260;2023-08-31T06:38:35;94035.19;;;21.34;79.80
6433;BME280;3249;42.690;23.260;2023-08-31T06:41:04;94042.31;;;21.47;79.65
6433;BME280;3249;42.690;23.260;2023-08-31T06:43:33;94034.94;;;21.63;76.60
6433;BME280;3249;42.690;23.260;2023-08-31T06:46:02;94038.06;;;21.65;76.96
6433;BME280;3249;42.690;23.260;2023-08-31T06:48:34;94047.22;;;21.35;79.24
6433;BME280;3249;42.690;23.260;2023-08-31T06:51:03;94043.63;;;21.31;78.78
6433;BME280;3249;42.690;23.260;2023-08-31T06:53:32;94047.09;;;21.27;80.07
6433;BME280;3249;42.690;23.260;2023-08-31T06:56:01;94044.06;;;21.52;80.06
6433;BME280;3249;42.690;23.260;2023-08-31T06:58:30;94041.72;;;21.37;80.28
6433;BME280;3249;42.690;23.260;2023-08-31T07:00:59;94040.78;;;21.60;79.15
6433;BME280;3249;42.690;23.260;2023-08-31T07:03:28;94046.31;;;21.58;80.79
6433;BME280;3249;42.690;23.260;2023-08-31T07:06:00;94041.09;;;21.26;83.13
6433;BME280;3249;42.690;23.260;2023-08-31T07:08:28;94043.88;;;21.62;82.11
6433;BME280;3249;42.690;23.260;2023-08-31T07:10:58;94039.56;;;21.84;80.85
6433;BME280;3249;42.690;23.260;2023-08-31T07:13:30;94049.56;;;21.96;80.32
6433;BME280;3249;42.690;23.260;2023-08-31T07:15:58;94050.06;;;21.52;81.50
6433;BME280;3249;42.690;23.260;2023-08-31T07:18:27;94039.25;;;21.72;79.75
6433;BME280;3249;42.690;23.260;2023-08-31T07:20:59;94055.53;;;21.56;80.28
6433;BME280;3249;42.690;23.260;2023-08-31T07:23:30;94054.06;;;21.63;77.33
6433;BME280;3249;42.690;23.260;2023-08-31T07:26:00;94050.72;;;21.90;72.25
6433;BME280;3249;42.690;23.260;2023-08-31T07:28:30;94055.28;;;21.98;72.83
6433;BME280;3249;42.690;23.260;2023-08-31T07:31:02;94045.38;;;22.08;73.22
6433;BME280;3249;42.690;23.260;2023-08-31T07:33:33;94059.28;;;22.23;73.62
6433;BME280;3249;42.690;23.260;2023-08-31T07:36:05;94053.91;;;22.55;69.76
6433;BME280;3249;42.690;23.260;2023-08-31T07:38:35;94057.09;;;22.38;66.38
6433;BME280;3249;42.690;23.260;2023-08-31T07:41:04;94058.19;;;22.37;66.12
6433;BME280;3249;42.690;23.260;2023-08-31T07:43:35;94058.47;;;22.49;66.89
6433;BME280;3249;42.690;23.260;2023-08-31T07:46:05;94064.25;;;22.73;64.44
6433;BME280;3249;42.690;23.260;2023-08-31T07:48:33;94067.72;;;22.82;64.61
6433;BME280;3249;42.690;23.260;2023-08-31T07:51:05;94065.06;;;22.60;64.69
6433;BME280;3249;42.690;23.260;2023-08-31T07:53:34;94071.69;;;22.58;65.02
6433;BME280;3249;42.690;23.260;2023-08-31T07:56:04;94063.16;;;22.52;67.35
6433;BME280;3249;42.690;23.260;2023-08-31T07:58:32;94038.66;;;22.43;67.46
6433;BME280;3249;42.690;23.260;2023-08-31T08:01:02;94057.31;;;22.55;68.93
6433;BME280;3249;42.690;23.260;2023-08-31T08:03:32;94071.22;;;22.91;68.78
6433;BME280;3249;42.690;23.260;2023-08-31T08:06:00;94072.88;;;22.87;67.56
6433;BME280;3249;42.690;23.260;2023-08-31T08:08:32;94076.22;;;23.01;67.26
6433;BME280;3249;42.690;23.260;2023-08-31T08:11:01;94076.09;;;23.06;64.78
6433;BME280;3249;42.690;23.260;2023-08-31T08:13:31;94077.94;;;22.84;69.85
6433;BME280;3249;42.690;23.260;2023-08-31T08:16:00;94074.56;;;23.05;62.52
6433;BME280;3249;42.690;23.260;2023-08-31T08:18:30;94084.91;;;23.24;57.51
6433;BME280;3249;42.690;23.260;2023-08-31T08:20:59;94079.00;;;23.40;55.10
6433;BME280;3249;42.690;23.260;2023-08-31T08:23:28;94079.25;;;23.52;50.08
6433;BME280;3249;42.690;23.260;2023-08-31T08:26:00;94087.66;;;23.63;48.45
6433;BME280;3249;42.690;23.260;2023-08-31T08:28:29;94081.22;;;23.77;46.91
6433;BME280;3249;42.690;23.260;2023-08-31T08:31:00;94082.22;;;23.90;46.47
6433;BME280;3249;42.690;23.260;2023-08-31T08:33:29;94084.16;;;23.98;44.06
6433;BME280;3249;42.690;23.260;2023-08-31T08:36:00;94092.41;;;24.13;41.62
6433;BME280;3249;42.690;23.260;2023-08-31T08:38:29;94080.53;;;24.24;39.96
6433;BME280;3249;42.690;23.260;2023-08-31T08:41:04;94092.50;;;24.39;39.20
6433;BME280;3249;42.690;23.260;2023-08-31T08:43:34;94090.78;;;24.34;37.41
6433;BME280;3249;42.690;23.260;2023-08-31T08:46:05;94100.84;;;24.32;36.43
6433;BME280;3249;42.690;23.260;2023-08-31T08:48:34;94090.16;;;24.29;37.42
6433;BME280;3249;42.690;23.260;2023-08-31T08:51:05;94077.00;;;24.29;37.13
6433;BME280;3249;42.690;23.260;2023-08-31T08:53:34;94088.47;;;24.33;36.93
6433;BME280;3249;42.690;23.260;2023-08-31T08:56:07;94098.53;;;24.39;36.67
6433;BME280;3249;42.690;23.260;2023-08-31T08:58:36;94099.09;;;24.19;37.92
6433;BME280;3249;42.690;23.260;2023-08-31T09:01:05;94089.03;;;24.21;38.87
6433;BME280;3249;42.690;23.260;2023-08-31T09:03:36;94085.25;;;24.05;39.49
6433;BME280;3249;42.690;23.260;2023-08-31T09:06:05;94087.72;;;24.02;41.33
6433;BME280;3249;42.690;23.260;2023-08-31T09:08:35;94087.13;;;24.13;40.77
6433;BME280;3249;42.690;23.260;2023-08-31T09:11:07;94074.41;;;23.98;42.10
6433;BME280;3249;42.690;23.260;2023-08-31T09:13:37;94088.81;;;24.01;41.97
6433;BME280;3249;42.690;23.260;2023-08-31T09:16:07;94085.75;;;23.85;42.89
6433;BME280;3249;42.690;23.260;2023-08-31T09:18:36;94082.41;;;23.93;42.73
6433;BME280;3249;42.690;23.260;2023-08-31T09:21:06;94081.13;;;24.13;42.40
6433;BME280;3249;42.690;23.260;2023-08-31T09:23:35;94084.09;;;24.28;41.53
6433;BME280;3249;42.690;23.260;2023-08-31T09:26:07;94081.50;;;24.37;41.50
6433;BME280;3249;42.690;23.260;2023-08-31T09:28:40;94076.09;;;24.42;42.66
6433;BME280;3249;42.690;23.260;2023-08-31T09:31:11;94082.78;;;24.48;42.01
6433;BME280;3249;42.690;23.260;2023-08-31T09:33:49;94091.63;;;24.52;40.41
6433;BME280;3249;42.690;23.260;2023-08-31T09:36:20;94088.53;;;24.58;41.12
6433;BME280;3249;42.690;23.260;2023-08-31T09:38:50;94076.81;;;24.25;42.18
6433;BME280;3249;42.690;23.260;2023-08-31T09:41:22;94080.38;;;24.29;41.54
6433;BME280;3249;42.690;23.260;2023-08-31T09:43:50;94087.38;;;24.34;39.59
6433;BME280;3249;42.690;23.260;2023-08-31T09:46:20;94081.31;;;24.33;37.27
6433;BME280;3249;42.690;23.260;2023-08-31T09:48:49;94094.66;;;24.45;36.10
6433;BME280;3249;42.690;23.260;2023-08-31T09:51:19;94079.72;;;24.63;35.90
6433;BME280;3249;42.690;23.260;2023-08-31T09:53:54;94089.66;;;24.66;35.80
6433;BME280;3249;42.690;23.260;2023-08-31T09:56:33;94078.44;;;24.60;35.51
6433;BME280;3249;42.690;23.260;2023-08-31T09:59:02;94092.16;;;24.88;35.81
6433;BME280;3249;42.690;23.260;2023-08-31T10:01:31;94091.56;;;25.08;34.92
6433;BME280;3249;42.690;23.260;2023-08-31T10:04:02;94096.97;;;25.11;33.32
6433;BME280;3249;42.690;23.260;2023-08-31T10:06:34;94089.53;;;25.13;32.13
6433;BME280;3249;42.690;23.260;2023-08-31T10:09:03;94069.53;;;24.95;32.13
6433;BME280;3249;42.690;23.260;2023-08-31T10:11:38;94084.72;;;24.98;32.76
6433;BME280;3249;42.690;23.260;2023-08-31T10:14:09;94087.34;;;25.07;33.44
6433;BME280;3249;42.690;23.260;2023-08-31T10:16:39;94064.41;;;25.07;34.04
6433;BME280;3249;42.690;23.260;2023-08-31T10:19:09;94078.38;;;25.42;34.40
6433;BME280;3249;42.690;23.260;2023-08-31T10:21:40;94070.75;;;25.57;33.60
6433;BME280;3249;42.690;23.260;2023-08-31T10:24:10;94083.91;;;25.74;34.32
6433;BME280;3249;42.690;23.260;2023-08-31T10:26:42;94084.03;;;25.78;34.14
6433;BME280;3249;42.690;23.260;2023-08-31T10:29:26;94094.59;;;25.95;34.40
6433;BME280;3249;42.690;23.260;2023-08-31T10:32:00;94095.34;;;25.87;34.02
6433;BME280;3249;42.690;23.260;2023-08-31T10:34:35;94090.84;;;25.96;34.53
6433;BME280;3249;42.690;23.260;2023-08-31T10:37:19;94099.81;;;26.04;33.93
6433;BME280;3249;42.690;23.260;2023-08-31T10:40:06;94086.84;;;25.81;35.70
6433;BME280;3249;42.690;23.260;2023-08-31T10:42:47;94106.38;;;25.98;34.09
6433;BME280;3249;42.690;23.260;2023-08-31T10:45:43;94104.94;;;25.91;34.09
6433;BME280;3249;42.690;23.260;2023-08-31T10:48:12;94105.09;;;26.04;34.71
6433;BME280;3249;42.690;23.260;2023-08-31T10:50:45;94103.84;;;25.92;33.29
6433;BME280;3249;42.690;23.260;2023-08-31T10:53:15;94096.06;;;26.05;34.04
6433;BME280;3249;42.690;23.260;2023-08-31T10:55:51;94106.91;;;26.20;34.57
6433;BME280;3249;42.690;23.260;2023-08-31T10:58:31;94086.41;;;26.17;34.83
6433;BME280;3249;42.690;23.260;2023-08-31T11:01:00;94103.78;;;26.18;34.87
6433;BME280;3249;42.690;23.260;2023-08-31T11:03:29;94105.06;;;26.12;34.97
6433;BME280;3249;42.690;23.260;2023-08-31T11:05:58;94098.50;;;25.72;35.54
6433;BME280;3249;42.690;23.260;2023-08-31T11:08:28;94094.19;;;25.50;36.50
6433;BME280;3249;42.690;23.260;2023-08-31T11:10:57;94092.78;;;25.61;36.26
6433;BME280;3249;42.690;23.260;2023-08-31T11:13:29;94110.13;;;25.71;35.71
6433;BME280;3249;42.690;23.260;2023-08-31T11:15:58;94101.88;;;25.81;36.35
6433;BME280;3249;42.690;23.260;2023-08-31T11:18:27;94104.94;;;25.91;35.97
6433;BME280;3249;42.690;23.260;2023-08-31T11:20:56;94100.16;;;25.85;35.15
6433;BME280;3249;42.690;23.260;2023-08-31T11:23:26;94106.97;;;25.86;35.06
6433;BME280;3249;42.690;23.260;2023-08-31T11:25:55;94108.06;;;25.93;34.25
6433;BME280;3249;42.690;23.260;2023-08-31T11:28:23;94096.88;;;25.97;34.79
6433;BME280;3249;42.690;23.260;2023-08-31T11:30:55;94115.63;;;26.12;33.87
6433;BME280;3249;42.690;23.260;2023-08-31T11:33:31;94119.88;;;25.96;34.25
6433;BME280;3249;42.690;23.260;2023-08-31T11:36:02;94113.03;;;25.86;37.70
6433;BME280;3249;42.690;23.260;2023-08-31T11:38:31;94112.91;;;25.74;38.85
6433;BME280;3249;42.690;23.260;2023-08-31T11:41:01;94110.94;;;25.54;39.80
6433;BME280;3249;42.690;23.260;2023-08-31T11:43:30;94099.59;;;25.62;40.40
6433;BME280;3249;42.690;23.260;2023-08-31T11:46:02;94102.72;;;25.47;41.20
6433;BME280;3249;42.690;23.260;2023-08-31T11:48:31;94102.56;;;25.18;41.57
6433;BME280;3249;42.690;23.260;2023-08-31T11:51:01;94101.00;;;25.26;41.68
6433;BME280;3249;42.690;23.260;2023-08-31T11:53:31;94101.16;;;25.12;42.61
6433;BME280;3249;42.690;23.260;2023-08-31T11:56:02;94091.88;;;25.32;40.67
6433;BME280;3249;42.690;23.260;2023-08-31T11:58:31;94082.22;;;24.93;42.21
6433;BME280;3249;42.690;23.260;2023-08-31T12:01:02;94081.09;;;24.60;42.29
6433;BME280;3249;42.690;23.260;2023-08-31T12:03:42;94083.91;;;24.72;42.32
6433;BME280;3249;42.690;23.260;2023-08-31T12:06:15;94092.00;;;24.84;41.84
6433;BME280;3249;42.690;23.260;2023-08-31T12:08:45;94062.16;;;24.41;41.81
6433;BME280;3249;42.690;23.260;2023-08-31T12:11:14;94070.84;;;24.50;42.54
6433;BME280;3249;42.690;23.260;2023-08-31T12:13:43;94079.38;;;24.56;44.34
6433;BME280;3249;42.690;23.260;2023-08-31T12:16:15;94081.00;;;24.82;43.84
6433;BME280;3249;42.690;23.260;2023-08-31T12:18:44;94074.28;;;24.59;44.14
6433;BME280;3249;42.690;23.260;2023-08-31T12:21:14;94077.72;;;24.85;44.34
6433;BME280;3249;42.690;23.260;2023-08-31T12:23:43;94071.25;;;25.00;41.75
6433;BME280;3249;42.690;23.260;2023-08-31T12:26:11;94051.72;;;24.92;41.54
6433;BME280;3249;42.690;23.260;2023-08-31T12:28:40;94082.72;;;24.95;41.62
6433;BME280;3249;42.690;23.260;2023-08-31T12:31:10;94081.75;;;24.83;41.11
6433;BME280;3249;42.690;23.260;2023-08-31T12:33:41;94077.44;;;24.78;40.95
6433;BME280;3249;42.690;23.260;2023-08-31T12:36:10;94069.06;;;24.76;42.45
6433;BME280;3249;42.690;23.260;2023-08-31T12:38:39;94074.63;;;24.66;41.41
6433;BME280;3249;42.690;23.260;2023-08-31T12:41:08;94069.13;;;24.46;41.39
6433;BME280;3249;42.690;23.260;2023-08-31T12:43:38;94073.72;;;24.79;41.29
6433;BME280;3249;42.690;23.260;2023-08-31T12:46:07;94064.56;;;24.94;39.62
6433;BME280;3249;42.690;23.260;2023-08-31T12:48:36;94072.47;;;25.11;39.55
6433;BME280;3249;42.690;23.260;2023-08-31T12:51:07;94061.47;;;25.26;38.55
6433;BME280;3249;42.690;23.260;2023-08-31T12:53:39;94077.63;;;25.41;38.32
6433;BME280;3249;42.690;23.260;2023-08-31T12:56:09;94080.25;;;25.41;37.71
6433;BME280;3249;42.690;23.260;2023-08-31T12:58:38;94074.34;;;25.44;37.17
6433;BME280;3249;42.690;23.260;2023-08-31T13:01:07;94079.75;;;24.97;38.02
6433;BME280;3249;42.690;23.260;2023-08-31T13:03:36;94076.50;;;24.91;39.95
6433;BME280;3249;42.690;23.260;2023-08-31T13:06:07;94073.72;;;24.96;38.21
6433;BME280;3249;42.690;23.260;2023-08-31T13:08:36;94069.25;;;25.05;38.74
6433;BME280;3249;42.690;23.260;2023-08-31T13:11:06;94066.75;;;25.17;37.84
6433;BME280;3249;42.690;23.260;2023-08-31T13:13:35;94075.28;;;25.31;36.79
6433;BME280;3249;42.690;23.260;2023-08-31T13:16:04;94086.91;;;25.30;37.63
6433;BME280;3249;42.690;23.260;2023-08-31T13:18:33;94067.81;;;25.25;38.27
6433;BME280;3249;42.690;23.260;2023-08-31T13:21:03;94078.41;;;25.33;38.08
6433;BME280;3249;42.690;23.260;2023-08-31T13:23:34;94076.50;;;25.25;37.87
6433;BME280;3249;42.690;23.260;2023-08-31T13:26:03;94073.41;;;25.49;38.05